createdAt,value
2019-01-03T00:00:26.209Z,26.37
2019-01-03T00:03:15.801Z,25.53
2019-01-03T00:06:04.599Z,28.07
2019-01-03T00:09:12.899Z,25.37
2019-01-03T00:12:12.479Z,26.97
2019-01-03T00:15:15.365Z,21.97
2019-01-03T00:18:14.440Z,26.87
2019-01-03T00:21:07.803Z,22.63
2019-01-03T00:23:58.632Z,19.93
2019-01-03T00:26:54.662Z,22.37
2019-01-03T00:29:47.569Z,25.37
2019-01-03T00:32:46.837Z,23.97
2019-01-03T00:35:45.652Z,23.33
2019-01-03T00:41:26.937Z,25.40
2019-01-03T00:44:15.517Z,23.90
2019-01-03T00:47:23.556Z,27.93
2019-01-03T00:50:25.630Z,24.77
2019-01-03T00:53:24.435Z,22.57
2019-01-03T00:56:13.139Z,27.63
2019-01-03T00:59:21.716Z,22.80
2019-01-03T01:02:13.163Z,26.47
2019-01-03T01:05:18.338Z,24.97
2019-01-03T01:08:26.927Z,20.97
2019-01-03T01:11:19.683Z,27.73
2019-01-03T01:14:21.639Z,27.07
2019-01-03T01:17:10.028Z,26.53
2019-01-03T01:20:02.998Z,26.57
2019-01-03T01:23:05.226Z,28.80
2019-01-03T01:26:13.465Z,29.50
2019-01-03T01:29:06.381Z,25.57
2019-01-03T01:31:59.380Z,29.40
2019-01-03T01:34:47.990Z,25.93
2019-01-03T01:37:44.245Z,31.33
2019-01-03T01:40:49.618Z,28.50
2019-01-03T01:43:36.814Z,29.37
2019-01-03T01:46:25.931Z,27.50
2019-01-03T01:49:31.210Z,25.80
2019-01-03T01:52:19.775Z,25.20
2019-01-03T01:55:09.708Z,28.63
2019-01-03T01:58:09.375Z,31.07
2019-01-03T02:00:58.179Z,25.53
2019-01-03T02:03:57.354Z,33.77
2019-01-03T02:06:45.949Z,31.10
2019-01-03T02:09:49.373Z,29.87
2019-01-03T02:12:42.411Z,32.23
2019-01-03T02:15:35.618Z,30.07
2019-01-03T02:18:33.108Z,31.67
2019-01-03T02:21:23.124Z,33.83
2019-01-03T02:24:13.182Z,28.67
2019-01-03T02:27:18.446Z,28.40
2019-01-03T02:30:11.203Z,33.83
2019-01-03T02:33:14.065Z,36.37
2019-01-03T02:36:02.875Z,30.80
2019-01-03T02:38:51.477Z,33.43
2019-01-03T02:41:41.489Z,33.40
2019-01-03T02:44:30.247Z,30.13
2019-01-03T02:47:29.523Z,29.50
2019-01-03T02:50:13.692Z,29.20
2019-01-03T02:53:03.591Z,26.80
2019-01-03T02:55:52.306Z,28.10
2019-01-03T02:58:42.366Z,30.30
2019-01-03T03:01:32.677Z,30.03
2019-01-03T03:04:21.619Z,29.93
2019-01-03T03:07:09.430Z,30.50
2019-01-03T03:09:55.132Z,30.83
2019-01-03T03:12:51.119Z,26.87
2019-01-03T03:15:48.730Z,25.87
2019-01-03T03:18:37.675Z,29.97
2019-01-03T03:21:39.971Z,30.20
2019-01-03T03:24:33.024Z,27.83
2019-01-03T03:27:22.687Z,28.50
2019-01-03T03:30:11.882Z,29.40
2019-01-03T03:33:00.560Z,34.10
2019-01-03T03:36:09.751Z,31.47
2019-01-03T03:39:09.764Z,27.80
2019-01-03T03:42:05.715Z,28.03
2019-01-03T03:45:12.519Z,29.27
2019-01-03T03:48:04.968Z,29.80
2019-01-03T03:51:08.266Z,28.87
2019-01-03T03:54:04.796Z,26.40
2019-01-03T03:57:01.648Z,32.57
2019-01-03T03:59:58.183Z,31.13
2019-01-03T04:02:48.021Z,28.70
2019-01-03T04:05:53.435Z,30.00
2019-01-03T04:08:40.176Z,27.73
2019-01-03T04:11:30.572Z,30.67
2019-01-03T04:14:19.565Z,27.83
2019-01-03T04:17:16.117Z,30.13
2019-01-03T04:20:09.754Z,28.17
2019-01-03T04:22:58.242Z,26.03
2019-01-03T04:25:57.619Z,28.53
2019-01-03T04:28:48.153Z,32.10
2019-01-03T04:31:34.103Z,26.53
2019-01-03T04:34:24.738Z,23.27
2019-01-03T04:37:17.083Z,29.63
2019-01-03T04:40:07.815Z,24.10
2019-01-03T04:43:02.319Z,27.57
2019-01-03T04:45:54.650Z,27.53
2019-01-03T04:48:54.331Z,29.57
2019-01-03T04:51:50.755Z,32.67
2019-01-03T04:54:50.304Z,30.27
2019-01-03T04:57:39.726Z,31.83
2019-01-03T05:00:29.777Z,23.77
2019-01-03T05:03:18.669Z,26.37
2019-01-03T05:06:17.017Z,26.53
2019-01-03T05:09:13.413Z,29.17
2019-01-03T05:12:10.377Z,34.50
2019-01-03T05:14:59.156Z,31.57
2019-01-03T05:17:50.230Z,29.83
2019-01-03T05:20:44.140Z,31.70
2019-01-03T05:23:31.835Z,32.13
2019-01-03T05:26:30.290Z,29.87
2019-01-03T05:29:23.334Z,31.53
2019-01-03T05:32:24.167Z,30.40
2019-01-03T05:35:33.143Z,30.87
2019-01-03T05:38:38.269Z,29.47
2019-01-03T05:41:31.505Z,33.83
2019-01-03T05:44:21.554Z,33.77
2019-01-03T05:47:11.025Z,41.73
2019-01-03T05:50:00.712Z,28.47
2019-01-03T05:53:00.833Z,30.27
2019-01-03T05:55:50.705Z,34.27
2019-01-03T05:58:42.308Z,35.87
2019-01-03T06:01:34.355Z,40.17
2019-01-03T06:04:34.165Z,35.53
2019-01-03T06:07:39.762Z,41.03
2019-01-03T06:10:33.118Z,32.53
2019-01-03T06:13:22.133Z,30.57
2019-01-03T06:16:12.730Z,37.73
2019-01-03T06:19:09.631Z,30.80
2019-01-03T06:22:00.804Z,34.93
2019-01-03T06:24:50.394Z,34.20
2019-01-03T06:27:39.720Z,30.73
2019-01-03T06:30:42.547Z,35.63
2019-01-03T06:33:33.913Z,33.57
2019-01-03T06:36:22.405Z,30.97
2019-01-03T06:39:31.106Z,38.53
2019-01-03T06:42:21.148Z,33.30
2019-01-03T06:45:11.518Z,32.67
2019-01-03T06:48:01.001Z,35.23
2019-01-03T06:50:51.192Z,36.13
2019-01-03T06:53:40.491Z,34.60
2019-01-03T06:56:29.558Z,29.13
2019-01-03T06:59:22.983Z,35.53
2019-01-03T07:02:23.778Z,30.87
2019-01-03T07:05:28.873Z,34.13
2019-01-03T07:08:20.036Z,33.57
2019-01-03T07:11:26.496Z,31.10
2019-01-03T07:14:17.575Z,35.60
2019-01-03T07:17:10.970Z,32.40
2019-01-03T07:20:03.723Z,35.27
2019-01-03T07:22:53.441Z,37.63
2019-01-03T07:25:42.490Z,29.30
2019-01-03T07:28:32.671Z,28.33
2019-01-03T07:31:28.203Z,33.93
2019-01-03T07:34:24.902Z,32.30
2019-01-03T07:37:10.047Z,35.37
2019-01-03T07:40:07.697Z,34.80
2019-01-03T07:43:16.127Z,29.77
2019-01-03T07:46:06.300Z,34.00
2019-01-03T07:49:02.799Z,30.40
2019-01-03T07:52:00.211Z,43.23
2019-01-03T07:54:49.295Z,37.03
2019-01-03T07:57:38.935Z,34.03
2019-01-03T08:00:24.989Z,32.80
2019-01-03T08:03:18.045Z,40.83
2019-01-03T08:06:18.132Z,34.60
2019-01-03T08:09:16.170Z,33.40
2019-01-03T08:12:13.678Z,32.70
2019-01-03T08:15:04.758Z,36.67
2019-01-03T08:17:53.935Z,45.03
2019-01-03T08:20:43.356Z,42.17
2019-01-03T08:23:26.492Z,36.37
2019-01-03T08:26:23.317Z,34.97
2019-01-03T08:29:13.352Z,38.90
2019-01-03T08:32:03.228Z,37.87
2019-01-03T08:35:08.993Z,33.40
2019-01-03T08:37:58.468Z,30.33
2019-01-03T08:41:04.866Z,34.53
2019-01-03T08:43:55.242Z,36.97
2019-01-03T08:46:46.624Z,33.27
2019-01-03T08:49:36.795Z,36.80
2019-01-03T08:52:32.857Z,31.57
2019-01-03T08:55:21.914Z,26.07
2019-01-03T08:58:26.558Z,30.47
2019-01-03T09:01:15.654Z,33.47
2019-01-03T09:04:08.063Z,35.17
2019-01-03T09:06:57.192Z,31.93
2019-01-03T09:09:49.202Z,32.83
2019-01-03T09:12:58.250Z,33.50
2019-01-03T09:15:47.765Z,30.03
2019-01-03T09:18:36.530Z,32.70
2019-01-03T09:21:25.854Z,37.43
2019-01-03T09:24:22.366Z,33.23
2019-01-03T09:27:12.421Z,27.13
2019-01-03T09:30:08.563Z,32.60
2019-01-03T09:32:53.758Z,29.13
2019-01-03T09:36:03.372Z,30.40
2019-01-03T09:38:54.125Z,31.80
2019-01-03T09:41:43.643Z,19.47
2019-01-03T09:44:44.216Z,22.80
2019-01-03T09:47:15.750Z,27.83
2019-01-03T09:49:49.103Z,28.23
2019-01-03T09:52:20.423Z,29.33
2019-01-03T09:54:52.690Z,30.17
2019-01-03T09:57:24.965Z,24.97
2019-01-03T09:59:57.077Z,24.87
2019-01-03T10:02:29.346Z,26.47
2019-01-03T10:05:02.105Z,23.00
2019-01-03T10:07:33.519Z,26.77
2019-01-03T10:10:07.037Z,20.10
2019-01-03T10:12:39.351Z,19.17
2019-01-03T10:15:12.904Z,22.40
2019-01-03T10:17:45.177Z,23.23
2019-01-03T10:20:16.523Z,23.13
2019-01-03T10:22:49.632Z,23.23
2019-01-03T10:25:22.526Z,23.57
2019-01-03T10:27:54.836Z,22.60
2019-01-03T10:30:27.394Z,20.37
2019-01-03T10:32:58.815Z,26.97
2019-01-03T10:35:30.285Z,23.27
2019-01-03T10:38:04.465Z,22.53
2019-01-03T10:40:35.905Z,24.67
2019-01-03T10:43:08.469Z,27.10
2019-01-03T10:45:40.302Z,24.83
2019-01-03T10:48:12.593Z,26.43
2019-01-03T10:50:44.140Z,24.93
2019-01-03T10:53:16.323Z,18.93
2019-01-03T10:55:47.960Z,24.13
2019-01-03T10:58:21.656Z,28.63
2019-01-03T11:00:54.358Z,28.17
2019-01-03T11:03:26.010Z,27.30
2019-01-03T11:05:58.420Z,25.27
2019-01-03T11:08:30.402Z,24.53
2019-01-03T11:11:02.333Z,28.70
2019-01-03T11:13:33.974Z,23.77
2019-01-03T11:16:07.249Z,30.37
2019-01-03T11:18:39.331Z,24.27
2019-01-03T11:21:11.721Z,24.17
2019-01-03T11:23:43.896Z,27.63
2019-01-03T11:26:15.624Z,28.23
2019-01-03T11:28:47.349Z,27.23
2019-01-03T11:31:19.460Z,31.67
2019-01-03T11:33:52.723Z,24.63
2019-01-03T11:36:24.045Z,34.93
2019-01-03T11:38:56.274Z,23.23
2019-01-03T11:41:27.667Z,27.50
2019-01-03T11:43:58.884Z,35.63
2019-01-03T11:46:30.882Z,32.47
2019-01-03T11:49:02.037Z,28.23
2019-01-03T11:51:33.225Z,31.03
2019-01-03T11:54:06.867Z,25.67
2019-01-03T11:56:39.380Z,14.80
2019-01-03T11:59:10.744Z,18.17
2019-01-03T12:01:41.743Z,14.00
2019-01-03T12:04:12.964Z,13.93
2019-01-03T12:06:44.092Z,15.90
2019-01-03T12:09:15.206Z,13.47
2019-01-03T12:11:46.430Z,14.13
2019-01-03T12:14:17.731Z,15.00
2019-01-03T12:16:48.967Z,11.83
2019-01-03T12:19:20.297Z,12.37
2019-01-03T12:21:51.531Z,15.87
2019-01-03T12:24:22.880Z,16.17
2019-01-03T12:26:54.172Z,15.83
2019-01-03T12:29:25.357Z,15.90
2019-01-03T12:31:56.584Z,19.53
2019-01-03T12:34:27.882Z,18.50
2019-01-03T12:36:58.961Z,20.00
2019-01-03T12:39:30.042Z,16.47
2019-01-03T12:42:01.368Z,15.23
2019-01-03T12:44:32.571Z,16.97
2019-01-03T12:47:03.893Z,13.97
2019-01-03T12:49:35.337Z,13.63
2019-01-03T12:52:06.623Z,13.47
2019-01-03T12:54:37.962Z,14.20
2019-01-03T12:57:08.918Z,10.27
2019-01-03T12:59:40.035Z,10.83
2019-01-03T13:02:11.324Z,16.77
2019-01-03T13:04:42.641Z,12.80
2019-01-03T13:07:13.794Z,17.83
2019-01-03T13:09:45.165Z,21.37
2019-01-03T13:12:16.328Z,20.87
2019-01-03T13:14:47.501Z,18.83
2019-01-03T13:17:18.587Z,18.13
2019-01-03T13:19:49.764Z,18.80
2019-01-03T13:22:20.945Z,27.23
2019-01-03T13:24:52.255Z,21.57
2019-01-03T13:27:23.531Z,16.97
2019-01-03T13:29:54.831Z,19.37
2019-01-03T13:32:26.001Z,12.93
2019-01-03T13:34:59.161Z,17.10
2019-01-03T13:37:30.368Z,18.73
2019-01-03T13:40:01.589Z,15.33
2019-01-03T13:42:32.897Z,14.03
2019-01-03T13:45:04.295Z,13.00
2019-01-03T13:47:35.486Z,11.90
2019-01-03T13:50:08.407Z,11.30
2019-01-03T13:52:39.727Z,12.07
2019-01-03T13:55:10.968Z,10.97
2019-01-03T13:57:42.150Z,13.23
2019-01-03T14:00:13.401Z,15.33
2019-01-03T14:02:44.688Z,13.47
2019-01-03T14:05:16.096Z,18.67
2019-01-03T14:07:47.363Z,17.57
2019-01-03T14:10:18.706Z,14.87
2019-01-03T14:12:49.950Z,16.63
2019-01-03T14:15:21.051Z,22.17
2019-01-03T14:17:52.201Z,22.63
2019-01-03T14:20:23.712Z,16.63
2019-01-03T14:22:56.168Z,19.37
2019-01-03T14:25:27.431Z,19.43
2019-01-03T14:27:58.732Z,17.77
2019-01-03T14:30:29.972Z,16.97
2019-01-03T14:33:02.530Z,19.20
2019-01-03T14:35:33.893Z,19.07
2019-01-03T14:38:05.118Z,20.13
2019-01-03T14:40:36.425Z,18.53
2019-01-03T14:43:07.552Z,29.50
2019-01-03T14:45:38.920Z,28.40
2019-01-03T14:48:10.103Z,23.57
2019-01-03T14:50:41.317Z,24.80
2019-01-03T14:53:12.512Z,26.83
2019-01-03T14:55:43.730Z,28.77
2019-01-03T14:58:14.907Z,24.13
2019-01-03T15:00:46.110Z,24.00
2019-01-03T15:03:17.309Z,26.03
2019-01-03T15:05:48.676Z,21.73
2019-01-03T15:08:19.904Z,20.27
2019-01-03T15:10:51.195Z,23.40
2019-01-03T15:13:23.829Z,22.50
2019-01-03T15:15:55.150Z,19.70
2019-01-03T15:18:26.374Z,20.17
2019-01-03T15:20:57.643Z,19.33
2019-01-03T15:23:30.395Z,19.87
2019-01-03T15:26:01.732Z,24.37
2019-01-03T15:28:32.968Z,24.60
2019-01-03T15:31:04.045Z,21.47
2019-01-03T15:33:35.230Z,14.50
2019-01-03T15:36:06.581Z,17.03
2019-01-03T15:38:37.866Z,14.80
2019-01-03T15:41:09.107Z,13.30
2019-01-03T15:43:40.435Z,13.40
2019-01-03T15:46:11.761Z,13.57
2019-01-03T15:48:43.020Z,12.40
2019-01-03T15:51:14.357Z,15.53
2019-01-03T15:53:45.471Z,16.17
2019-01-03T15:56:16.652Z,14.40
2019-01-03T15:58:47.748Z,18.50
2019-01-03T16:01:18.970Z,20.23
2019-01-03T16:03:50.115Z,21.70
2019-01-03T16:06:21.435Z,19.87
2019-01-03T16:08:52.575Z,20.60
2019-01-03T16:11:23.911Z,22.17
2019-01-03T16:13:54.971Z,23.63
2019-01-03T16:16:29.031Z,22.67
2019-01-03T16:19:00.208Z,21.30
2019-01-03T16:21:31.445Z,22.53
2019-01-03T16:24:02.714Z,25.80
2019-01-03T16:26:34.261Z,22.17
2019-01-03T16:29:05.565Z,22.87
2019-01-03T16:31:36.763Z,19.13
2019-01-03T16:34:07.934Z,24.03
2019-01-03T16:36:39.300Z,23.47
2019-01-03T16:39:10.398Z,24.17
2019-01-03T16:41:41.710Z,21.50
2019-01-03T16:44:13.911Z,23.10
2019-01-03T16:46:45.087Z,22.47
2019-01-03T16:49:16.316Z,24.63
2019-01-03T16:51:47.693Z,20.70
2019-01-03T16:54:18.838Z,28.03
2019-01-03T16:56:50.310Z,25.03
2019-01-03T16:59:23.942Z,20.87
2019-01-03T17:01:55.253Z,22.40
2019-01-03T17:04:26.765Z,24.87
2019-01-03T17:06:58.249Z,22.90
2019-01-03T17:09:29.498Z,22.00
2019-01-03T17:12:00.659Z,21.67
2019-01-03T17:14:31.875Z,25.77
2019-01-03T17:17:03.357Z,19.30
2019-01-03T17:19:34.626Z,24.13
2019-01-03T17:22:05.874Z,25.73
2019-01-03T17:24:37.012Z,25.10
2019-01-03T17:27:11.111Z,23.83
2019-01-03T17:29:42.411Z,22.40
2019-01-03T17:32:13.466Z,23.60
2019-01-03T17:34:44.706Z,21.90
2019-01-03T17:37:16.348Z,28.17
2019-01-03T17:39:47.486Z,31.80
2019-01-03T17:42:18.658Z,21.33
2019-01-03T17:44:49.754Z,22.83
2019-01-03T17:47:21.080Z,21.97
2019-01-03T17:49:52.443Z,30.00
2019-01-03T17:52:23.642Z,23.33
2019-01-03T17:54:56.362Z,23.70
2019-01-03T17:57:30.945Z,25.77
2019-01-03T18:00:01.882Z,24.60
2019-01-03T18:02:33.091Z,29.97
2019-01-03T18:05:04.510Z,24.80
2019-01-03T18:07:35.497Z,29.47
2019-01-03T18:10:08.433Z,24.03
2019-01-03T18:12:39.989Z,27.83
2019-01-03T18:15:11.302Z,24.83
2019-01-03T18:17:42.760Z,27.40
2019-01-03T18:20:16.049Z,30.43
2019-01-03T18:22:47.484Z,27.83
2019-01-03T18:25:18.703Z,30.50
2019-01-03T18:27:49.932Z,29.83
2019-01-03T18:30:21.123Z,35.23
2019-01-03T18:32:52.546Z,31.10
2019-01-03T18:35:24.736Z,36.67
2019-01-03T18:37:56.861Z,29.03
2019-01-03T18:40:28.053Z,31.90
2019-01-03T18:42:59.313Z,34.07
2019-01-03T18:45:30.698Z,31.73
2019-01-03T18:48:02.057Z,35.43
2019-01-03T18:50:34.148Z,29.43
2019-01-03T18:53:05.455Z,32.13
2019-01-03T18:55:36.466Z,30.13
2019-01-03T18:58:07.712Z,31.97
2019-01-03T19:00:39.185Z,36.47
2019-01-03T19:03:10.417Z,35.53
2019-01-03T19:05:41.555Z,41.10
2019-01-03T19:08:12.956Z,37.17
2019-01-03T19:10:44.289Z,30.90
2019-01-03T19:13:15.563Z,31.23
2019-01-03T19:15:46.915Z,26.37
2019-01-03T19:18:18.013Z,28.67
2019-01-03T19:20:49.310Z,28.97
2019-01-03T19:23:20.651Z,30.07
2019-01-03T19:25:51.954Z,31.40
2019-01-03T19:28:25.381Z,31.53
2019-01-03T19:30:56.126Z,27.27
2019-01-03T19:33:27.310Z,33.87
2019-01-03T19:36:00.801Z,25.70
2019-01-03T19:38:32.010Z,26.90
2019-01-03T19:41:03.185Z,24.80
2019-01-03T19:43:34.487Z,26.10
2019-01-03T19:46:05.563Z,26.63
2019-01-03T19:48:36.722Z,20.77
2019-01-03T19:51:08.062Z,25.73
2019-01-03T19:53:39.436Z,33.30
2019-01-03T19:56:11.721Z,22.33
2019-01-03T19:58:43.022Z,25.87
2019-01-03T20:01:14.195Z,27.07
2019-01-03T20:03:45.373Z,26.50
2019-01-03T20:06:16.635Z,26.23
2019-01-03T20:08:47.771Z,24.63
2019-01-03T20:11:19.143Z,26.93
2019-01-03T20:13:50.676Z,27.07
2019-01-03T20:16:22.027Z,20.30
2019-01-03T20:18:53.231Z,21.33
2019-01-03T20:21:24.539Z,25.17
2019-01-03T20:23:55.825Z,26.60
2019-01-03T20:26:27.131Z,26.97
2019-01-03T20:28:59.532Z,27.90
2019-01-03T20:31:30.914Z,26.50
2019-01-03T20:34:02.121Z,23.43
2019-01-03T20:36:34.354Z,22.57
2019-01-03T20:39:06.312Z,18.60
2019-01-03T20:41:37.744Z,18.50
2019-01-03T20:44:09.032Z,21.10
2019-01-03T20:46:40.144Z,21.00
2019-01-03T20:49:11.407Z,26.97
2019-01-03T20:51:42.549Z,20.33
2019-01-03T20:54:13.934Z,20.47
2019-01-03T20:56:45.130Z,20.83
2019-01-03T20:59:16.361Z,20.23
2019-01-03T21:01:47.691Z,20.23
2019-01-03T21:04:18.972Z,20.90
2019-01-03T21:06:50.222Z,19.63
2019-01-03T21:09:21.476Z,17.10
2019-01-03T21:11:52.903Z,16.90
2019-01-03T21:14:24.308Z,19.53
2019-01-03T21:16:57.047Z,18.33
2019-01-03T21:19:28.410Z,20.50
2019-01-03T21:21:59.690Z,15.83
2019-01-03T21:24:33.137Z,18.80
2019-01-03T21:27:04.359Z,23.10
2019-01-03T21:29:35.709Z,21.53
2019-01-03T21:32:09.362Z,22.60
2019-01-03T21:34:40.590Z,18.33
2019-01-03T21:37:11.914Z,21.60
2019-01-03T21:39:43.214Z,21.10
2019-01-03T21:42:14.591Z,21.30
2019-01-03T21:44:45.936Z,21.53
2019-01-03T21:47:18.353Z,19.87
2019-01-03T21:49:49.557Z,17.53
2019-01-03T21:52:20.664Z,20.23
2019-01-03T21:54:52.012Z,21.47
2019-01-03T21:57:23.457Z,17.60
2019-01-03T21:59:54.630Z,20.27
2019-01-03T22:02:25.742Z,18.93
2019-01-03T22:04:57.123Z,21.80
2019-01-03T22:07:28.384Z,18.17
2019-01-03T22:09:59.546Z,22.70
2019-01-03T22:12:30.850Z,23.10
2019-01-03T22:15:01.803Z,18.80
2019-01-03T22:17:33.214Z,20.93
2019-01-03T22:20:04.653Z,19.43
2019-01-03T22:22:37.092Z,19.13
2019-01-03T22:25:08.448Z,16.37
2019-01-03T22:27:39.610Z,19.07
2019-01-03T22:30:13.223Z,18.03
2019-01-03T22:32:44.374Z,17.77
2019-01-03T22:35:15.438Z,18.77
2019-01-03T22:37:46.704Z,20.83
2019-01-03T22:40:17.985Z,17.17
2019-01-03T22:42:50.330Z,17.67
2019-01-03T22:45:23.198Z,15.87
2019-01-03T22:47:54.361Z,16.60
2019-01-03T22:50:25.681Z,17.83
2019-01-03T22:52:56.938Z,17.50
2019-01-03T22:55:28.243Z,18.70
2019-01-03T22:57:59.530Z,18.27
2019-01-03T23:00:40.189Z,19.13
2019-01-03T23:03:11.528Z,18.63
2019-01-03T23:05:44.022Z,18.40
2019-01-03T23:08:15.016Z,18.47
2019-01-03T23:10:46.404Z,20.47
2019-01-03T23:13:17.548Z,19.20
2019-01-03T23:15:50.513Z,18.93
2019-01-03T23:18:21.710Z,16.93
2019-01-03T23:20:54.157Z,17.67
2019-01-03T23:23:25.363Z,19.97
2019-01-03T23:25:56.746Z,17.00
2019-01-03T23:28:27.976Z,21.97
2019-01-03T23:30:59.006Z,17.53
2019-01-03T23:33:30.247Z,17.63
2019-01-03T23:36:02.724Z,18.80
2019-01-03T23:38:33.870Z,17.77
2019-01-03T23:41:05.025Z,21.17
2019-01-03T23:43:36.294Z,19.37
2019-01-03T23:46:07.590Z,19.00
2019-01-03T23:48:38.925Z,18.63
2019-01-03T23:51:10.222Z,19.80
2019-01-03T23:53:41.606Z,16.80
2019-01-03T23:56:12.944Z,18.93
2019-01-03T23:58:44.206Z,16.70
